Terminal Aerodrome Forecast
Issued by NWS

Home | Current Version | Previous Version | Text Only | Print | Product List | Glossary On
Versions: 1 2 3 4 5 6 7 8 9 10 11 12 13 14 15 16
000
FTUS43 KMQT 251700
TAFIWD
TAF
KIWD 251723Z 2518/2618 28020G30KT P6SM SKC
     FM252300 29010G20KT P6SM SKC
     FM260500 29010KT P6SM SKC
     FM261500 26005KT P6SM SCT250
      AMD LTD TO CLD VIS AND WIND=

USA.gov is the U.S. government's official web portal to all federal, state and local government web resources and services.